Weather at Kogalym International Airport

Public forecast

Using degrees Celsius for public forecast. Weather courtesy of forecast.io.

Current aviation weather report (METAR) for Kogalym International Airport

Report is more than 6 hours old.

Retrieved 2017/06/15 05:30 UTC (3 years ago):

USRK 150530Z 15004MPS 9999 SCT040CB 19/14 Q1005 R17/CLRD60 RMK QFE748

Aviation forecast (TAF) for Kogalym International Airport

Forecast is more than 12 hours old.

Retrieved 2013/03/01 09:12 UTC (8 years ago):

TAF TAF USRK 010735Z 0109/0209 20006G11MPS 9999 BKN066 TEMPO 0112/0118 BKN007